sensor_id;sensor_type;location;lat;lon;timestamp;temperature;humidity
324;DHT22;149;51.094;17.002;2023-04-01T00:01:47;9.90;99.90
324;DHT22;149;51.094;17.002;2023-04-01T00:04:13;10.00;99.90
324;DHT22;149;51.094;17.002;2023-04-01T00:06:42;10.10;99.90
324;DHT22;149;51.094;17.002;2023-04-01T00:09:09;10.00;99.90
324;DHT22;149;51.094;17.002;2023-04-01T00:11:36;9.90;99.90
324;DHT22;149;51.094;17.002;2023-04-01T00:14:03;10.10;99.90
324;DHT22;149;51.094;17.002;2023-04-01T00:16:30;10.20;99.90
324;DHT22;149;51.094;17.002;2023-04-01T00:18:57;10.10;99.90
324;DHT22;149;51.094;17.002;2023-04-01T00:21:24;10.00;99.90
324;DHT22;149;51.094;17.002;2023-04-01T00:23:51;9.90;99.90
324;DHT22;149;51.094;17.002;2023-04-01T00:26:19;9.80;99.90
324;DHT22;149;51.094;17.002;2023-04-01T00:28:49;9.70;99.90
324;DHT22;149;51.094;17.002;2023-04-01T00:31:16;9.70;99.90
324;DHT22;149;51.094;17.002;2023-04-01T00:33:43;9.60;99.90
324;DHT22;149;51.094;17.002;2023-04-01T00:36:14;9.80;99.90
324;DHT22;149;51.094;17.002;2023-04-01T00:38:41;9.90;99.90
324;DHT22;149;51.094;17.002;2023-04-01T00:41:11;9.80;99.90
324;DHT22;149;51.094;17.002;2023-04-01T00:43:47;10.00;99.90
324;DHT22;149;51.094;17.002;2023-04-01T00:46:14;9.80;99.90
324;DHT22;149;51.094;17.002;2023-04-01T00:48:45;9.70;99.90
324;DHT22;149;51.094;17.002;2023-04-01T00:51:17;9.70;99.90
324;DHT22;149;51.094;17.002;2023-04-01T00:53:49;9.80;99.90
324;DHT22;149;51.094;17.002;2023-04-01T00:56:19;9.80;99.90
324;DHT22;149;51.094;17.002;2023-04-01T00:58:56;10.00;99.90
324;DHT22;149;51.094;17.002;2023-04-01T01:01:24;10.10;99.90
324;DHT22;149;51.094;17.002;2023-04-01T01:03:52;10.10;99.90
324;DHT22;149;51.094;17.002;2023-04-01T01:06:45;10.20;99.90
324;DHT22;149;51.094;17.002;2023-04-01T01:12:28;10.40;99.90
324;DHT22;149;51.094;17.002;2023-04-01T01:15:07;10.50;99.90
324;DHT22;149;51.094;17.002;2023-04-01T01:26:31;10.10;99.90
324;DHT22;149;51.094;17.002;2023-04-01T01:29:40;10.10;99.90
324;DHT22;149;51.094;17.002;2023-04-01T01:35:40;10.00;99.90
324;DHT22;149;51.094;17.002;2023-04-01T01:38:13;10.10;99.90
324;DHT22;149;51.094;17.002;2023-04-01T01:40:43;10.00;99.90
324;DHT22;149;51.094;17.002;2023-04-01T01:43:14;10.00;99.90
324;DHT22;149;51.094;17.002;2023-04-01T01:45:47;10.00;99.90
324;DHT22;149;51.094;17.002;2023-04-01T01:48:16;10.10;99.90
324;DHT22;149;51.094;17.002;2023-04-01T01:50:45;10.00;99.90
324;DHT22;149;51.094;17.002;2023-04-01T01:53:13;10.10;99.90
324;DHT22;149;51.094;17.002;2023-04-01T01:55:42;10.20;99.90
324;DHT22;149;51.094;17.002;2023-04-01T01:58:26;10.20;99.90
324;DHT22;149;51.094;17.002;2023-04-01T02:00:59;10.30;99.90
324;DHT22;149;51.094;17.002;2023-04-01T02:03:31;10.20;99.90
324;DHT22;149;51.094;17.002;2023-04-01T02:06:00;10.30;99.90
324;DHT22;149;51.094;17.002;2023-04-01T02:11:03;10.30;99.90
324;DHT22;149;51.094;17.002;2023-04-01T02:16:00;10.20;99.90
324;DHT22;149;51.094;17.002;2023-04-01T02:18:29;10.40;99.90
324;DHT22;149;51.094;17.002;2023-04-01T02:20:59;10.30;99.90
324;DHT22;149;51.094;17.002;2023-04-01T02:23:28;10.40;99.90
324;DHT22;149;51.094;17.002;2023-04-01T02:25:55;10.30;99.90
324;DHT22;149;51.094;17.002;2023-04-01T02:28:23;10.20;99.90
324;DHT22;149;51.094;17.002;2023-04-01T02:30:50;10.30;99.90
324;DHT22;149;51.094;17.002;2023-04-01T02:33:19;10.40;99.90
324;DHT22;149;51.094;17.002;2023-04-01T02:35:46;10.50;99.90
324;DHT22;149;51.094;17.002;2023-04-01T02:38:14;10.30;99.90
324;DHT22;149;51.094;17.002;2023-04-01T02:40:49;10.30;99.90
324;DHT22;149;51.094;17.002;2023-04-01T02:43:16;10.30;99.90
324;DHT22;149;51.094;17.002;2023-04-01T02:45:43;10.20;99.90
324;DHT22;149;51.094;17.002;2023-04-01T02:48:10;10.40;99.90
324;DHT22;149;51.094;17.002;2023-04-01T02:50:37;10.40;99.90
324;DHT22;149;51.094;17.002;2023-04-01T02:53:04;10.50;99.90
324;DHT22;149;51.094;17.002;2023-04-01T02:55:33;10.50;99.90
324;DHT22;149;51.094;17.002;2023-04-01T02:58:01;10.30;99.90
324;DHT22;149;51.094;17.002;2023-04-01T03:00:28;10.20;99.90
324;DHT22;149;51.094;17.002;2023-04-01T03:02:55;10.20;99.90
324;DHT22;149;51.094;17.002;2023-04-01T03:05:24;10.30;99.90
324;DHT22;149;51.094;17.002;2023-04-01T03:07:51;10.40;99.90
324;DHT22;149;51.094;17.002;2023-04-01T03:10:18;10.40;99.90
324;DHT22;149;51.094;17.002;2023-04-01T03:12:44;10.30;99.90
324;DHT22;149;51.094;17.002;2023-04-01T03:15:13;10.50;99.90
324;DHT22;149;51.094;17.002;2023-04-01T03:17:42;10.40;99.90
324;DHT22;149;51.094;17.002;2023-04-01T03:20:10;10.30;99.90
324;DHT22;149;51.094;17.002;2023-04-01T03:22:37;10.50;99.90
324;DHT22;149;51.094;17.002;2023-04-01T03:25:10;10.40;99.90
324;DHT22;149;51.094;17.002;2023-04-01T03:27:37;10.50;99.90
324;DHT22;149;51.094;17.002;2023-04-01T03:30:05;10.60;99.90
324;DHT22;149;51.094;17.002;2023-04-01T03:32:32;10.50;99.90
324;DHT22;149;51.094;17.002;2023-04-01T03:34:59;10.50;99.90
324;DHT22;149;51.094;17.002;2023-04-01T03:37:26;10.40;99.90
324;DHT22;149;51.094;17.002;2023-04-01T03:39:54;10.40;99.90
324;DHT22;149;51.094;17.002;2023-04-01T03:42:21;10.40;99.90
324;DHT22;149;51.094;17.002;2023-04-01T03:44:48;10.40;99.90
324;DHT22;149;51.094;17.002;2023-04-01T03:47:15;10.40;99.90
324;DHT22;149;51.094;17.002;2023-04-01T03:49:42;10.50;99.90
324;DHT22;149;51.094;17.002;2023-04-01T03:52:10;10.60;99.90
324;DHT22;149;51.094;17.002;2023-04-01T03:54:37;10.60;99.90
324;DHT22;149;51.094;17.002;2023-04-01T03:57:04;10.50;99.90
324;DHT22;149;51.094;17.002;2023-04-01T03:59:31;10.50;99.90
324;DHT22;149;51.094;17.002;2023-04-01T04:01:58;10.40;99.90
324;DHT22;149;51.094;17.002;2023-04-01T04:04:25;10.10;99.90
324;DHT22;149;51.094;17.002;2023-04-01T04:06:53;10.10;99.90
324;DHT22;149;51.094;17.002;2023-04-01T04:09:20;10.20;99.90
324;DHT22;149;51.094;17.002;2023-04-01T04:11:48;10.10;99.90
324;DHT22;149;51.094;17.002;2023-04-01T04:14:15;10.00;99.90
324;DHT22;149;51.094;17.002;2023-04-01T04:16:42;9.90;99.90
324;DHT22;149;51.094;17.002;2023-04-01T04:19:09;9.90;99.90
324;DHT22;149;51.094;17.002;2023-04-01T04:21:36;9.80;99.90
324;DHT22;149;51.094;17.002;2023-04-01T04:24:03;9.80;99.90
324;DHT22;149;51.094;17.002;2023-04-01T04:26:30;9.90;99.90
324;DHT22;149;51.094;17.002;2023-04-01T04:28:58;9.90;99.90
324;DHT22;149;51.094;17.002;2023-04-01T04:31:25;10.00;99.90
324;DHT22;149;51.094;17.002;2023-04-01T04:33:53;9.90;99.90
324;DHT22;149;51.094;17.002;2023-04-01T04:36:21;9.80;99.90
324;DHT22;149;51.094;17.002;2023-04-01T04:38:48;9.80;99.90
324;DHT22;149;51.094;17.002;2023-04-01T04:41:17;9.70;99.90
324;DHT22;149;51.094;17.002;2023-04-01T04:43:54;9.60;99.90
324;DHT22;149;51.094;17.002;2023-04-01T04:46:23;9.60;99.90
324;DHT22;149;51.094;17.002;2023-04-01T04:48:50;9.70;99.90
324;DHT22;149;51.094;17.002;2023-04-01T04:51:18;9.70;99.90
324;DHT22;149;51.094;17.002;2023-04-01T04:53:46;9.60;99.90
324;DHT22;149;51.094;17.002;2023-04-01T04:56:19;9.60;99.90
324;DHT22;149;51.094;17.002;2023-04-01T04:58:47;9.60;99.90
324;DHT22;149;51.094;17.002;2023-04-01T05:01:15;9.60;99.90
324;DHT22;149;51.094;17.002;2023-04-01T05:03:42;9.70;99.90
324;DHT22;149;51.094;17.002;2023-04-01T05:06:11;9.70;99.90
324;DHT22;149;51.094;17.002;2023-04-01T05:08:39;9.70;99.90
324;DHT22;149;51.094;17.002;2023-04-01T05:11:10;9.70;99.90
324;DHT22;149;51.094;17.002;2023-04-01T05:13:39;9.50;99.90
324;DHT22;149;51.094;17.002;2023-04-01T05:16:11;9.60;99.90
324;DHT22;149;51.094;17.002;2023-04-01T05:18:39;9.70;99.90
324;DHT22;149;51.094;17.002;2023-04-01T05:21:08;9.70;99.90
324;DHT22;149;51.094;17.002;2023-04-01T05:23:35;9.60;99.90
324;DHT22;149;51.094;17.002;2023-04-01T05:26:08;9.70;99.90
324;DHT22;149;51.094;17.002;2023-04-01T05:28:35;9.70;99.90
324;DHT22;149;51.094;17.002;2023-04-01T05:31:03;9.80;99.90
324;DHT22;149;51.094;17.002;2023-04-01T05:33:30;9.70;99.90
324;DHT22;149;51.094;17.002;2023-04-01T05:36:06;9.70;99.90
324;DHT22;149;51.094;17.002;2023-04-01T05:38:33;9.70;99.90
324;DHT22;149;51.094;17.002;2023-04-01T05:41:01;9.70;99.90
324;DHT22;149;51.094;17.002;2023-04-01T05:43:28;10.00;99.90
324;DHT22;149;51.094;17.002;2023-04-01T05:45:57;10.00;99.90
324;DHT22;149;51.094;17.002;2023-04-01T05:48:24;9.90;99.90
324;DHT22;149;51.094;17.002;2023-04-01T05:50:51;10.00;99.90
324;DHT22;149;51.094;17.002;2023-04-01T05:53:19;10.10;99.90
324;DHT22;149;51.094;17.002;2023-04-01T05:55:46;10.10;99.90
324;DHT22;149;51.094;17.002;2023-04-01T05:58:13;10.10;99.90
324;DHT22;149;51.094;17.002;2023-04-01T06:00:39;10.10;99.90
324;DHT22;149;51.094;17.002;2023-04-01T06:03:06;10.20;99.90
324;DHT22;149;51.094;17.002;2023-04-01T06:05:44;10.40;99.90
324;DHT22;149;51.094;17.002;2023-04-01T06:08:16;10.40;99.90
324;DHT22;149;51.094;17.002;2023-04-01T06:16:56;10.20;99.90
324;DHT22;149;51.094;17.002;2023-04-01T06:19:47;10.10;99.90
324;DHT22;149;51.094;17.002;2023-04-01T06:25:29;10.10;99.90
324;DHT22;149;51.094;17.002;2023-04-01T06:28:01;10.10;99.90
324;DHT22;149;51.094;17.002;2023-04-01T06:33:40;10.00;99.90
324;DHT22;149;51.094;17.002;2023-04-01T06:39:22;10.10;99.90
324;DHT22;149;51.094;17.002;2023-04-01T06:42:53;10.20;99.90
324;DHT22;149;51.094;17.002;2023-04-01T06:45:16;10.30;99.90
324;DHT22;149;51.094;17.002;2023-04-01T06:48:24;10.30;99.90
324;DHT22;149;51.094;17.002;2023-04-01T06:51:20;10.30;99.90
324;DHT22;149;51.094;17.002;2023-04-01T06:54:18;10.50;99.90
324;DHT22;149;51.094;17.002;2023-04-01T06:56:52;10.50;99.90
324;DHT22;149;51.094;17.002;2023-04-01T06:59:25;10.60;99.90
324;DHT22;149;51.094;17.002;2023-04-01T07:04:43;10.60;99.90
324;DHT22;149;51.094;17.002;2023-04-01T07:07:21;10.60;99.90
324;DHT22;149;51.094;17.002;2023-04-01T07:09:54;10.60;99.90
324;DHT22;149;51.094;17.002;2023-04-01T07:15:26;10.60;99.90
324;DHT22;149;51.094;17.002;2023-04-01T07:18:15;10.70;99.90
324;DHT22;149;51.094;17.002;2023-04-01T07:20:44;10.70;99.90
324;DHT22;149;51.094;17.002;2023-04-01T07:23:23;10.80;99.90
324;DHT22;149;51.094;17.002;2023-04-01T07:25:56;10.90;99.90
324;DHT22;149;51.094;17.002;2023-04-01T07:28:32;11.00;99.90
324;DHT22;149;51.094;17.002;2023-04-01T07:31:07;11.00;99.90
324;DHT22;149;51.094;17.002;2023-04-01T07:33:54;11.00;99.90
324;DHT22;149;51.094;17.002;2023-04-01T07:40:18;11.00;99.90
324;DHT22;149;51.094;17.002;2023-04-01T07:42:20;11.10;99.90
324;DHT22;149;51.094;17.002;2023-04-01T07:50:32;11.10;99.90
324;DHT22;149;51.094;17.002;2023-04-01T07:53:40;11.00;99.90
324;DHT22;149;51.094;17.002;2023-04-01T07:59:00;11.20;99.90
324;DHT22;149;51.094;17.002;2023-04-01T08:09:44;12.00;99.90
324;DHT22;149;51.094;17.002;2023-04-01T08:15:03;12.40;99.90
324;DHT22;149;51.094;17.002;2023-04-01T08:25:40;12.10;99.90
324;DHT22;149;51.094;17.002;2023-04-01T08:31:16;12.00;99.90
324;DHT22;149;51.094;17.002;2023-04-01T08:33:46;12.00;99.90
324;DHT22;149;51.094;17.002;2023-04-01T08:41:42;12.20;99.90
324;DHT22;149;51.094;17.002;2023-04-01T08:56:18;12.90;99.90
324;DHT22;149;51.094;17.002;2023-04-01T09:07:13;13.00;99.90
324;DHT22;149;51.094;17.002;2023-04-01T09:12:50;13.10;99.90
324;DHT22;149;51.094;17.002;2023-04-01T09:24:52;13.00;99.90
324;DHT22;149;51.094;17.002;2023-04-01T09:42:40;14.20;99.90
324;DHT22;149;51.094;17.002;2023-04-01T09:53:47;15.70;99.90
324;DHT22;149;51.094;17.002;2023-04-01T09:59:29;16.20;99.90
324;DHT22;149;51.094;17.002;2023-04-01T10:07:42;16.90;99.90
324;DHT22;149;51.094;17.002;2023-04-01T10:29:27;15.80;99.90
324;DHT22;149;51.094;17.002;2023-04-01T10:42:38;14.70;99.90
324;DHT22;149;51.094;17.002;2023-04-01T10:53:36;12.80;99.90
324;DHT22;149;51.094;17.002;2023-04-01T11:07:22;11.20;99.90
324;DHT22;149;51.094;17.002;2023-04-01T11:15:59;12.20;99.90
324;DHT22;149;51.094;17.002;2023-04-01T11:23:36;12.80;99.90
324;DHT22;149;51.094;17.002;2023-04-01T11:40:29;12.50;99.90
324;DHT22;149;51.094;17.002;2023-04-01T11:43:15;12.50;99.90
324;DHT22;149;51.094;17.002;2023-04-01T11:54:35;12.00;99.90
324;DHT22;149;51.094;17.002;2023-04-01T12:00:10;12.20;99.90
324;DHT22;149;51.094;17.002;2023-04-01T12:05:54;12.00;99.90
324;DHT22;149;51.094;17.002;2023-04-01T12:19:03;11.30;99.90
324;DHT22;149;51.094;17.002;2023-04-01T12:21:49;11.40;99.90
324;DHT22;149;51.094;17.002;2023-04-01T12:27:37;12.30;99.90
324;DHT22;149;51.094;17.002;2023-04-01T12:30:32;12.60;99.90
324;DHT22;149;51.094;17.002;2023-04-01T12:33:37;12.70;99.90
324;DHT22;149;51.094;17.002;2023-04-01T12:36:26;12.60;99.90
324;DHT22;149;51.094;17.002;2023-04-01T12:56:04;12.70;99.90
324;DHT22;149;51.094;17.002;2023-04-01T13:04:39;12.80;99.90
324;DHT22;149;51.094;17.002;2023-04-01T13:10:31;13.00;99.90
324;DHT22;149;51.094;17.002;2023-04-01T13:13:20;13.00;99.90
324;DHT22;149;51.094;17.002;2023-04-01T13:15:58;13.10;99.90
324;DHT22;149;51.094;17.002;2023-04-01T13:21:39;13.20;99.90
324;DHT22;149;51.094;17.002;2023-04-01T13:27:12;13.10;99.90
324;DHT22;149;51.094;17.002;2023-04-01T13:32:41;13.40;99.90
324;DHT22;149;51.094;17.002;2023-04-01T13:35:34;13.60;99.90
324;DHT22;149;51.094;17.002;2023-04-01T13:41:31;13.90;99.90
324;DHT22;149;51.094;17.002;2023-04-01T13:44:16;14.20;99.90
324;DHT22;149;51.094;17.002;2023-04-01T13:52:27;13.00;99.90
324;DHT22;149;51.094;17.002;2023-04-01T14:01:08;11.60;99.90
324;DHT22;149;51.094;17.002;2023-04-01T14:09:52;11.10;99.90
324;DHT22;149;51.094;17.002;2023-04-01T14:12:38;11.20;99.90
324;DHT22;149;51.094;17.002;2023-04-01T14:20:26;11.20;99.90
324;DHT22;149;51.094;17.002;2023-04-01T14:28:31;11.20;99.90
324;DHT22;149;51.094;17.002;2023-04-01T14:33:51;11.20;99.90
324;DHT22;149;51.094;17.002;2023-04-01T14:39:43;11.30;99.90
324;DHT22;149;51.094;17.002;2023-04-01T14:48:07;11.30;99.90
324;DHT22;149;51.094;17.002;2023-04-01T14:50:45;11.30;99.90
324;DHT22;149;51.094;17.002;2023-04-01T14:55:58;11.30;99.90
324;DHT22;149;51.094;17.002;2023-04-01T14:58:43;11.30;99.90
324;DHT22;149;51.094;17.002;2023-04-01T15:10:21;11.10;99.90
324;DHT22;149;51.094;17.002;2023-04-01T15:24:24;11.10;99.90
324;DHT22;149;51.094;17.002;2023-04-01T15:34:53;10.90;99.90
324;DHT22;149;51.094;17.002;2023-04-01T15:37:43;10.90;99.90
324;DHT22;149;51.094;17.002;2023-04-01T15:40:22;11.00;99.90
324;DHT22;149;51.094;17.002;2023-04-01T15:56:53;11.10;99.90
324;DHT22;149;51.094;17.002;2023-04-01T16:02:08;10.90;99.90
324;DHT22;149;51.094;17.002;2023-04-01T16:04:51;10.90;99.90
324;DHT22;149;51.094;17.002;2023-04-01T16:07:48;11.00;99.90
324;DHT22;149;51.094;17.002;2023-04-01T16:19:05;10.80;99.90
324;DHT22;149;51.094;17.002;2023-04-01T16:24:38;10.80;99.90
324;DHT22;149;51.094;17.002;2023-04-01T16:27:19;10.90;99.90
324;DHT22;149;51.094;17.002;2023-04-01T16:30:03;10.70;99.90
324;DHT22;149;51.094;17.002;2023-04-01T16:33:22;10.60;99.90
324;DHT22;149;51.094;17.002;2023-04-01T16:38:55;10.60;99.90
324;DHT22;149;51.094;17.002;2023-04-01T16:41:41;10.60;99.90
324;DHT22;149;51.094;17.002;2023-04-01T16:44:25;10.60;99.90
324;DHT22;149;51.094;17.002;2023-04-01T16:46:56;10.60;99.90
324;DHT22;149;51.094;17.002;2023-04-01T16:49:32;10.60;99.90
324;DHT22;149;51.094;17.002;2023-04-01T17:11:27;10.90;99.90
324;DHT22;149;51.094;17.002;2023-04-01T17:17:08;11.10;99.90
324;DHT22;149;51.094;17.002;2023-04-01T17:20:31;11.00;99.90
324;DHT22;149;51.094;17.002;2023-04-01T17:22:59;10.70;99.90
324;DHT22;149;51.094;17.002;2023-04-01T17:31:20;10.20;99.90
324;DHT22;149;51.094;17.002;2023-04-01T17:34:16;10.40;99.90
324;DHT22;149;51.094;17.002;2023-04-01T17:37:06;10.50;99.90
324;DHT22;149;51.094;17.002;2023-04-01T17:40:26;10.90;99.90
324;DHT22;149;51.094;17.002;2023-04-01T17:42:54;11.00;99.90
324;DHT22;149;51.094;17.002;2023-04-01T17:53:31;11.60;99.90
324;DHT22;149;51.094;17.002;2023-04-01T17:56:12;11.30;99.90
324;DHT22;149;51.094;17.002;2023-04-01T17:59:02;11.30;99.90
324;DHT22;149;51.094;17.002;2023-04-01T18:02:09;11.20;99.90
324;DHT22;149;51.094;17.002;2023-04-01T18:05:14;11.20;99.90
324;DHT22;149;51.094;17.002;2023-04-01T18:08:05;11.00;99.90
324;DHT22;149;51.094;17.002;2023-04-01T18:11:05;10.80;99.90
324;DHT22;149;51.094;17.002;2023-04-01T18:13:39;10.50;99.90
324;DHT22;149;51.094;17.002;2023-04-01T18:16:38;10.30;99.90
324;DHT22;149;51.094;17.002;2023-04-01T18:27:29;9.90;99.90
324;DHT22;149;51.094;17.002;2023-04-01T18:30:08;9.80;99.90
324;DHT22;149;51.094;17.002;2023-04-01T18:33:03;9.80;99.90
324;DHT22;149;51.094;17.002;2023-04-01T18:38:33;9.70;99.90
324;DHT22;149;51.094;17.002;2023-04-01T18:41:22;9.70;99.90
324;DHT22;149;51.094;17.002;2023-04-01T18:46:54;9.70;99.90
324;DHT22;149;51.094;17.002;2023-04-01T18:49:39;9.80;99.90
324;DHT22;149;51.094;17.002;2023-04-01T18:52:27;9.70;99.90
324;DHT22;149;51.094;17.002;2023-04-01T19:00:32;9.80;99.90
324;DHT22;149;51.094;17.002;2023-04-01T19:03:23;9.80;99.90
324;DHT22;149;51.094;17.002;2023-04-01T19:05:53;9.90;99.90
324;DHT22;149;51.094;17.002;2023-04-01T19:08:32;9.80;99.90
324;DHT22;149;51.094;17.002;2023-04-01T19:14:13;9.60;99.90
324;DHT22;149;51.094;17.002;2023-04-01T19:19:58;9.40;99.90
324;DHT22;149;51.094;17.002;2023-04-01T19:22:35;9.40;99.90
324;DHT22;149;51.094;17.002;2023-04-01T19:25:32;9.40;99.90
324;DHT22;149;51.094;17.002;2023-04-01T19:30:59;9.40;99.90
324;DHT22;149;51.094;17.002;2023-04-01T19:33:37;9.40;99.90
324;DHT22;149;51.094;17.002;2023-04-01T19:36:39;9.30;99.90
324;DHT22;149;51.094;17.002;2023-04-01T19:39:37;9.30;99.90
324;DHT22;149;51.094;17.002;2023-04-01T19:45:17;9.00;99.90
324;DHT22;149;51.094;17.002;2023-04-01T19:47:52;8.90;99.90
324;DHT22;149;51.094;17.002;2023-04-01T19:51:11;9.00;99.90
324;DHT22;149;51.094;17.002;2023-04-01T19:54:21;9.00;99.90
324;DHT22;149;51.094;17.002;2023-04-01T20:00:13;8.90;99.90
324;DHT22;149;51.094;17.002;2023-04-01T20:03:05;8.80;99.90
324;DHT22;149;51.094;17.002;2023-04-01T20:08:28;8.90;99.90
324;DHT22;149;51.094;17.002;2023-04-01T20:19:28;8.80;99.90
324;DHT22;149;51.094;17.002;2023-04-01T20:21:59;8.80;99.90
324;DHT22;149;51.094;17.002;2023-04-01T20:24:44;8.80;99.90
324;DHT22;149;51.094;17.002;2023-04-01T20:32:55;8.70;99.90
324;DHT22;149;51.094;17.002;2023-04-01T20:50:50;8.80;99.90
324;DHT22;149;51.094;17.002;2023-04-01T21:18:24;8.60;99.90
324;DHT22;149;51.094;17.002;2023-04-01T21:21:16;8.60;99.90
324;DHT22;149;51.094;17.002;2023-04-01T21:24:05;8.50;99.90
324;DHT22;149;51.094;17.002;2023-04-01T21:29:19;8.60;99.90
324;DHT22;149;51.094;17.002;2023-04-01T21:34:54;8.50;99.90
324;DHT22;149;51.094;17.002;2023-04-01T21:37:42;8.40;99.90
324;DHT22;149;51.094;17.002;2023-04-01T21:40:17;8.40;99.90
324;DHT22;149;51.094;17.002;2023-04-01T21:43:16;8.30;99.90
324;DHT22;149;51.094;17.002;2023-04-01T22:00:19;8.10;99.90
324;DHT22;149;51.094;17.002;2023-04-01T22:06:10;8.00;99.90
324;DHT22;149;51.094;17.002;2023-04-01T22:12:04;7.90;99.90
324;DHT22;149;51.094;17.002;2023-04-01T22:25:31;7.80;99.90
324;DHT22;149;51.094;17.002;2023-04-01T22:30:50;7.80;99.90
324;DHT22;149;51.094;17.002;2023-04-01T22:33:44;7.70;99.90
324;DHT22;149;51.094;17.002;2023-04-01T22:36:23;7.70;99.90
324;DHT22;149;51.094;17.002;2023-04-01T22:39:36;7.70;99.90
324;DHT22;149;51.094;17.002;2023-04-01T22:42:35;7.80;99.90
324;DHT22;149;51.094;17.002;2023-04-01T22:48:08;7.80;99.90
324;DHT22;149;51.094;17.002;2023-04-01T22:56:48;7.80;99.90
324;DHT22;149;51.094;17.002;2023-04-01T22:59:37;7.80;99.90
324;DHT22;149;51.094;17.002;2023-04-01T23:02:39;7.80;99.90
324;DHT22;149;51.094;17.002;2023-04-01T23:05:09;7.70;99.90
324;DHT22;149;51.094;17.002;2023-04-01T23:10:27;7.70;99.90
324;DHT22;149;51.094;17.002;2023-04-01T23:13:04;7.60;99.90
324;DHT22;149;51.094;17.002;2023-04-01T23:15:32;7.60;99.90
324;DHT22;149;51.094;17.002;2023-04-01T23:18:04;7.70;99.90
324;DHT22;149;51.094;17.002;2023-04-01T23:20:59;7.60;99.90
324;DHT22;149;51.094;17.002;2023-04-01T23:23:41;7.80;99.90
324;DHT22;149;51.094;17.002;2023-04-01T23:29:12;7.60;99.90
324;DHT22;149;51.094;17.002;2023-04-01T23:31:41;7.50;99.90
324;DHT22;149;51.094;17.002;2023-04-01T23:36:50;7.40;99.90
324;DHT22;149;51.094;17.002;2023-04-01T23:39:36;7.40;99.90
324;DHT22;149;51.094;17.002;2023-04-01T23:44:57;7.40;99.90
324;DHT22;149;51.094;17.002;2023-04-01T23:47:37;7.30;99.90
324;DHT22;149;51.094;17.002;2023-04-01T23:50:10;7.20;99.90
324;DHT22;149;51.094;17.002;2023-04-01T23:52:47;7.10;99.90
324;DHT22;149;51.094;17.002;2023-04-01T23:57:41;7.00;99.90
